sensor_id;sensor_type;location;lat;lon;timestamp;P1;durP1;ratioP1;P2;durP2;ratioP2
24305;SDS011;12423;48.768;8.850;2022-08-04T00:01:05;5.15;;;2.05;;
24305;SDS011;12423;48.768;8.850;2022-08-04T00:07:42;3.33;;;2.30;;
24305;SDS011;12423;48.768;8.850;2022-08-04T00:10:09;3.53;;;2.40;;
24305;SDS011;12423;48.768;8.850;2022-08-04T00:12:10;4.68;;;2.45;;
24305;SDS011;12423;48.768;8.850;2022-08-04T00:14:12;4.20;;;1.85;;
24305;SDS011;12423;48.768;8.850;2022-08-04T00:16:15;2.60;;;1.83;;
24305;SDS011;12423;48.768;8.850;2022-08-04T00:18:17;5.70;;;2.35;;
24305;SDS011;12423;48.768;8.850;2022-08-04T00:20:28;3.35;;;2.30;;
24305;SDS011;12423;48.768;8.850;2022-08-04T00:22:32;3.75;;;2.33;;
24305;SDS011;12423;48.768;8.850;2022-08-04T00:24:35;4.13;;;2.50;;
24305;SDS011;12423;48.768;8.850;2022-08-04T00:26:36;4.13;;;2.40;;
24305;SDS011;12423;48.768;8.850;2022-08-04T00:28:37;4.43;;;2.38;;
24305;SDS011;12423;48.768;8.850;2022-08-04T00:30:40;6.40;;;2.88;;
24305;SDS011;12423;48.768;8.850;2022-08-04T00:32:42;3.72;;;2.75;;
24305;SDS011;12423;48.768;8.850;2022-08-04T00:34:43;3.20;;;1.98;;
24305;SDS011;12423;48.768;8.850;2022-08-04T00:36:46;6.00;;;2.30;;
24305;SDS011;12423;48.768;8.850;2022-08-04T00:38:47;3.85;;;2.40;;
24305;SDS011;12423;48.768;8.850;2022-08-04T00:41:02;3.67;;;2.40;;
24305;SDS011;12423;48.768;8.850;2022-08-04T00:45:24;3.03;;;1.95;;
24305;SDS011;12423;48.768;8.850;2022-08-04T00:53:05;5.00;;;2.22;;
24305;SDS011;12423;48.768;8.850;2022-08-04T00:55:31;3.30;;;2.00;;
24305;SDS011;12423;48.768;8.850;2022-08-04T01:00:03;5.53;;;2.22;;
24305;SDS011;12423;48.768;8.850;2022-08-04T01:02:15;4.20;;;2.00;;
24305;SDS011;12423;48.768;8.850;2022-08-04T01:07:09;5.38;;;2.15;;
24305;SDS011;12423;48.768;8.850;2022-08-04T01:11:58;4.40;;;2.40;;
24305;SDS011;12423;48.768;8.850;2022-08-04T01:16:25;4.13;;;2.20;;
24305;SDS011;12423;48.768;8.850;2022-08-04T01:18:35;3.38;;;2.20;;
24305;SDS011;12423;48.768;8.850;2022-08-04T01:21:04;4.32;;;2.10;;
24305;SDS011;12423;48.768;8.850;2022-08-04T01:25:35;3.58;;;2.13;;
24305;SDS011;12423;48.768;8.850;2022-08-04T01:28:02;4.93;;;2.22;;
24305;SDS011;12423;48.768;8.850;2022-08-04T01:30:15;4.45;;;2.05;;
24305;SDS011;12423;48.768;8.850;2022-08-04T01:32:18;3.30;;;2.20;;
24305;SDS011;12423;48.768;8.850;2022-08-04T01:34:22;3.55;;;2.35;;
24305;SDS011;12423;48.768;8.850;2022-08-04T01:36:27;5.80;;;2.60;;
24305;SDS011;12423;48.768;8.850;2022-08-04T01:38:34;3.58;;;2.30;;
24305;SDS011;12423;48.768;8.850;2022-08-04T01:40:37;4.50;;;2.20;;
24305;SDS011;12423;48.768;8.850;2022-08-04T01:42:41;6.22;;;2.65;;
24305;SDS011;12423;48.768;8.850;2022-08-04T01:44:46;3.42;;;2.25;;
24305;SDS011;12423;48.768;8.850;2022-08-04T01:46:48;4.95;;;2.38;;
24305;SDS011;12423;48.768;8.850;2022-08-04T01:48:52;5.72;;;2.08;;
24305;SDS011;12423;48.768;8.850;2022-08-04T01:50:56;3.65;;;2.00;;
24305;SDS011;12423;48.768;8.850;2022-08-04T01:52:58;3.65;;;1.90;;
24305;SDS011;12423;48.768;8.850;2022-08-04T01:55:00;4.03;;;2.00;;
24305;SDS011;12423;48.768;8.850;2022-08-04T01:57:05;4.72;;;2.13;;
24305;SDS011;12423;48.768;8.850;2022-08-04T01:59:06;5.10;;;2.42;;
24305;SDS011;12423;48.768;8.850;2022-08-04T02:01:09;4.07;;;2.20;;
24305;SDS011;12423;48.768;8.850;2022-08-04T02:03:11;3.72;;;2.40;;
24305;SDS011;12423;48.768;8.850;2022-08-04T02:05:14;2.80;;;1.90;;
24305;SDS011;12423;48.768;8.850;2022-08-04T02:07:19;3.10;;;1.98;;
24305;SDS011;12423;48.768;8.850;2022-08-04T02:09:42;4.88;;;2.20;;
24305;SDS011;12423;48.768;8.850;2022-08-04T02:12:01;3.65;;;2.17;;
24305;SDS011;12423;48.768;8.850;2022-08-04T02:14:22;3.92;;;1.88;;
24305;SDS011;12423;48.768;8.850;2022-08-04T02:16:46;3.70;;;2.00;;
24305;SDS011;12423;48.768;8.850;2022-08-04T02:21:04;4.28;;;2.25;;
24305;SDS011;12423;48.768;8.850;2022-08-04T02:23:06;3.30;;;1.90;;
24305;SDS011;12423;48.768;8.850;2022-08-04T02:25:09;4.15;;;2.40;;
24305;SDS011;12423;48.768;8.850;2022-08-04T02:27:12;2.70;;;2.10;;
24305;SDS011;12423;48.768;8.850;2022-08-04T02:30:15;3.13;;;2.13;;
24305;SDS011;12423;48.768;8.850;2022-08-04T02:32:02;3.67;;;2.38;;
24305;SDS011;12423;48.768;8.850;2022-08-04T02:34:06;4.00;;;2.30;;
24305;SDS011;12423;48.768;8.850;2022-08-04T02:36:27;2.70;;;1.90;;
24305;SDS011;12423;48.768;8.850;2022-08-04T02:40:54;2.90;;;2.10;;
24305;SDS011;12423;48.768;8.850;2022-08-04T02:42:56;5.10;;;2.20;;
24305;SDS011;12423;48.768;8.850;2022-08-04T02:44:57;5.07;;;2.53;;
24305;SDS011;12423;48.768;8.850;2022-08-04T02:46:59;4.47;;;2.17;;
24305;SDS011;12423;48.768;8.850;2022-08-04T02:49:08;3.13;;;2.22;;
24305;SDS011;12423;48.768;8.850;2022-08-04T02:51:10;6.63;;;2.30;;
24305;SDS011;12423;48.768;8.850;2022-08-04T02:53:13;7.13;;;2.10;;
24305;SDS011;12423;48.768;8.850;2022-08-04T02:55:15;3.50;;;2.58;;
24305;SDS011;12423;48.768;8.850;2022-08-04T02:57:17;3.80;;;2.17;;
24305;SDS011;12423;48.768;8.850;2022-08-04T02:59:19;5.03;;;3.13;;
24305;SDS011;12423;48.768;8.850;2022-08-04T03:01:25;3.83;;;2.13;;
24305;SDS011;12423;48.768;8.850;2022-08-04T03:05:52;3.65;;;2.10;;
24305;SDS011;12423;48.768;8.850;2022-08-04T03:11:27;3.20;;;2.47;;
24305;SDS011;12423;48.768;8.850;2022-08-04T03:16:34;7.15;;;2.13;;
24305;SDS011;12423;48.768;8.850;2022-08-04T03:28:18;3.38;;;2.45;;
24305;SDS011;12423;48.768;8.850;2022-08-04T03:35:14;3.65;;;2.10;;
24305;SDS011;12423;48.768;8.850;2022-08-04T03:42:26;5.75;;;3.53;;
24305;SDS011;12423;48.768;8.850;2022-08-04T03:47:23;2.72;;;1.98;;
24305;SDS011;12423;48.768;8.850;2022-08-04T03:49:44;3.20;;;2.10;;
24305;SDS011;12423;48.768;8.850;2022-08-04T03:52:00;3.10;;;2.10;;
24305;SDS011;12423;48.768;8.850;2022-08-04T04:02:11;4.68;;;2.60;;
24305;SDS011;12423;48.768;8.850;2022-08-04T04:04:39;2.97;;;2.05;;
24305;SDS011;12423;48.768;8.850;2022-08-04T04:06:47;5.10;;;2.95;;
24305;SDS011;12423;48.768;8.850;2022-08-04T04:11:44;5.65;;;2.40;;
24305;SDS011;12423;48.768;8.850;2022-08-04T04:14:06;3.30;;;2.00;;
24305;SDS011;12423;48.768;8.850;2022-08-04T04:16:31;4.72;;;2.20;;
24305;SDS011;12423;48.768;8.850;2022-08-04T04:20:59;5.40;;;2.20;;
24305;SDS011;12423;48.768;8.850;2022-08-04T04:23:39;3.38;;;2.30;;
24305;SDS011;12423;48.768;8.850;2022-08-04T04:36:22;3.38;;;2.20;;
24305;SDS011;12423;48.768;8.850;2022-08-04T04:38:35;3.58;;;2.15;;
24305;SDS011;12423;48.768;8.850;2022-08-04T04:45:52;6.95;;;2.33;;
24305;SDS011;12423;48.768;8.850;2022-08-04T04:50:11;4.30;;;2.53;;
24305;SDS011;12423;48.768;8.850;2022-08-04T04:54:38;3.88;;;2.40;;
24305;SDS011;12423;48.768;8.850;2022-08-04T04:56:46;4.85;;;2.65;;
24305;SDS011;12423;48.768;8.850;2022-08-04T04:58:53;5.00;;;2.55;;
24305;SDS011;12423;48.768;8.850;2022-08-04T05:05:55;4.22;;;2.45;;
24305;SDS011;12423;48.768;8.850;2022-08-04T05:12:41;3.70;;;2.42;;
24305;SDS011;12423;48.768;8.850;2022-08-04T05:14:48;4.60;;;2.80;;
24305;SDS011;12423;48.768;8.850;2022-08-04T05:17:01;3.83;;;2.33;;
24305;SDS011;12423;48.768;8.850;2022-08-04T05:23:59;4.68;;;2.20;;
24305;SDS011;12423;48.768;8.850;2022-08-04T05:26:06;3.78;;;2.30;;
24305;SDS011;12423;48.768;8.850;2022-08-04T05:28:15;5.47;;;2.50;;
24305;SDS011;12423;48.768;8.850;2022-08-04T05:30:24;5.63;;;2.45;;
24305;SDS011;12423;48.768;8.850;2022-08-04T05:32:28;3.67;;;2.30;;
24305;SDS011;12423;48.768;8.850;2022-08-04T05:34:34;4.22;;;3.00;;
24305;SDS011;12423;48.768;8.850;2022-08-04T05:36:42;4.30;;;2.80;;
24305;SDS011;12423;48.768;8.850;2022-08-04T05:38:48;6.90;;;2.42;;
24305;SDS011;12423;48.768;8.850;2022-08-04T05:40:52;3.25;;;2.40;;
24305;SDS011;12423;48.768;8.850;2022-08-04T05:42:54;3.45;;;2.50;;
24305;SDS011;12423;48.768;8.850;2022-08-04T05:44:56;4.93;;;2.50;;
24305;SDS011;12423;48.768;8.850;2022-08-04T05:46:58;4.63;;;2.60;;
24305;SDS011;12423;48.768;8.850;2022-08-04T05:49:02;5.35;;;2.60;;
24305;SDS011;12423;48.768;8.850;2022-08-04T05:51:05;4.03;;;2.65;;
24305;SDS011;12423;48.768;8.850;2022-08-04T05:53:10;3.47;;;2.50;;
24305;SDS011;12423;48.768;8.850;2022-08-04T05:55:14;4.93;;;2.60;;
24305;SDS011;12423;48.768;8.850;2022-08-04T05:57:16;8.10;;;2.10;;
24305;SDS011;12423;48.768;8.850;2022-08-04T05:59:18;3.13;;;2.25;;
24305;SDS011;12423;48.768;8.850;2022-08-04T06:01:20;3.95;;;2.63;;
24305;SDS011;12423;48.768;8.850;2022-08-04T06:03:21;5.07;;;2.78;;
24305;SDS011;12423;48.768;8.850;2022-08-04T06:05:23;3.35;;;2.50;;
24305;SDS011;12423;48.768;8.850;2022-08-04T06:07:25;4.00;;;2.38;;
24305;SDS011;12423;48.768;8.850;2022-08-04T06:09:26;6.32;;;2.40;;
24305;SDS011;12423;48.768;8.850;2022-08-04T06:11:27;3.50;;;2.40;;
24305;SDS011;12423;48.768;8.850;2022-08-04T06:13:30;5.00;;;2.88;;
24305;SDS011;12423;48.768;8.850;2022-08-04T06:15:37;4.15;;;2.83;;
24305;SDS011;12423;48.768;8.850;2022-08-04T06:17:47;4.22;;;2.78;;
24305;SDS011;12423;48.768;8.850;2022-08-04T06:19:49;4.32;;;2.47;;
24305;SDS011;12423;48.768;8.850;2022-08-04T06:21:53;4.30;;;2.50;;
24305;SDS011;12423;48.768;8.850;2022-08-04T06:23:56;4.00;;;2.30;;
24305;SDS011;12423;48.768;8.850;2022-08-04T06:25:59;3.70;;;2.15;;
24305;SDS011;12423;48.768;8.850;2022-08-04T06:28:01;3.85;;;2.28;;
24305;SDS011;12423;48.768;8.850;2022-08-04T06:30:06;5.78;;;2.50;;
24305;SDS011;12423;48.768;8.850;2022-08-04T06:32:13;4.80;;;2.40;;
24305;SDS011;12423;48.768;8.850;2022-08-04T06:34:26;3.72;;;2.30;;
24305;SDS011;12423;48.768;8.850;2022-08-04T06:36:29;5.72;;;2.17;;
24305;SDS011;12423;48.768;8.850;2022-08-04T06:38:32;5.07;;;2.38;;
24305;SDS011;12423;48.768;8.850;2022-08-04T06:40:35;3.40;;;2.10;;
24305;SDS011;12423;48.768;8.850;2022-08-04T06:42:36;5.30;;;2.53;;
24305;SDS011;12423;48.768;8.850;2022-08-04T06:44:39;3.22;;;2.08;;
24305;SDS011;12423;48.768;8.850;2022-08-04T06:46:41;5.85;;;2.75;;
24305;SDS011;12423;48.768;8.850;2022-08-04T06:48:43;5.10;;;2.97;;
24305;SDS011;12423;48.768;8.850;2022-08-04T06:50:46;6.40;;;2.40;;
24305;SDS011;12423;48.768;8.850;2022-08-04T06:52:48;8.63;;;2.17;;
24305;SDS011;12423;48.768;8.850;2022-08-04T06:54:50;6.20;;;2.70;;
24305;SDS011;12423;48.768;8.850;2022-08-04T06:56:52;5.00;;;2.30;;
24305;SDS011;12423;48.768;8.850;2022-08-04T06:58:58;3.63;;;2.20;;
24305;SDS011;12423;48.768;8.850;2022-08-04T07:01:01;8.00;;;2.22;;
24305;SDS011;12423;48.768;8.850;2022-08-04T07:03:02;4.65;;;2.10;;
24305;SDS011;12423;48.768;8.850;2022-08-04T07:05:05;6.43;;;2.42;;
24305;SDS011;12423;48.768;8.850;2022-08-04T07:07:07;5.13;;;2.70;;
24305;SDS011;12423;48.768;8.850;2022-08-04T07:09:08;3.50;;;1.80;;
24305;SDS011;12423;48.768;8.850;2022-08-04T07:11:10;3.72;;;2.00;;
24305;SDS011;12423;48.768;8.850;2022-08-04T07:13:12;3.88;;;2.33;;
24305;SDS011;12423;48.768;8.850;2022-08-04T07:15:13;3.58;;;2.17;;
24305;SDS011;12423;48.768;8.850;2022-08-04T07:17:16;5.25;;;2.20;;
24305;SDS011;12423;48.768;8.850;2022-08-04T07:19:20;6.28;;;2.10;;
24305;SDS011;12423;48.768;8.850;2022-08-04T07:21:22;8.73;;;2.50;;
24305;SDS011;12423;48.768;8.850;2022-08-04T07:23:24;3.50;;;2.28;;
24305;SDS011;12423;48.768;8.850;2022-08-04T07:25:26;6.15;;;2.55;;
24305;SDS011;12423;48.768;8.850;2022-08-04T07:27:27;9.75;;;2.85;;
24305;SDS011;12423;48.768;8.850;2022-08-04T07:29:29;6.22;;;1.80;;
24305;SDS011;12423;48.768;8.850;2022-08-04T07:31:31;5.93;;;1.90;;
24305;SDS011;12423;48.768;8.850;2022-08-04T07:33:33;3.78;;;1.80;;
24305;SDS011;12423;48.768;8.850;2022-08-04T07:35:34;3.78;;;1.85;;
24305;SDS011;12423;48.768;8.850;2022-08-04T07:37:38;4.85;;;2.20;;
24305;SDS011;12423;48.768;8.850;2022-08-04T07:39:39;4.05;;;2.17;;
24305;SDS011;12423;48.768;8.850;2022-08-04T07:41:41;4.78;;;2.10;;
24305;SDS011;12423;48.768;8.850;2022-08-04T07:43:43;3.03;;;2.05;;
24305;SDS011;12423;48.768;8.850;2022-08-04T07:45:44;3.58;;;1.95;;
24305;SDS011;12423;48.768;8.850;2022-08-04T07:47:45;2.70;;;1.70;;
24305;SDS011;12423;48.768;8.850;2022-08-04T07:49:46;5.65;;;1.98;;
24305;SDS011;12423;48.768;8.850;2022-08-04T07:51:47;2.75;;;1.67;;
24305;SDS011;12423;48.768;8.850;2022-08-04T07:53:49;3.30;;;2.20;;
24305;SDS011;12423;48.768;8.850;2022-08-04T07:55:50;4.85;;;2.20;;
24305;SDS011;12423;48.768;8.850;2022-08-04T07:57:52;4.70;;;2.50;;
24305;SDS011;12423;48.768;8.850;2022-08-04T07:59:53;4.57;;;2.00;;
24305;SDS011;12423;48.768;8.850;2022-08-04T08:01:54;4.50;;;2.60;;
24305;SDS011;12423;48.768;8.850;2022-08-04T08:04:00;3.50;;;1.88;;
24305;SDS011;12423;48.768;8.850;2022-08-04T08:06:02;4.72;;;2.42;;
24305;SDS011;12423;48.768;8.850;2022-08-04T08:08:04;3.50;;;1.88;;
24305;SDS011;12423;48.768;8.850;2022-08-04T08:10:10;3.40;;;1.65;;
24305;SDS011;12423;48.768;8.850;2022-08-04T08:12:12;4.60;;;1.80;;
24305;SDS011;12423;48.768;8.850;2022-08-04T08:14:15;5.53;;;2.33;;
24305;SDS011;12423;48.768;8.850;2022-08-04T08:16:16;4.82;;;2.30;;
24305;SDS011;12423;48.768;8.850;2022-08-04T08:18:20;6.53;;;1.85;;
24305;SDS011;12423;48.768;8.850;2022-08-04T08:20:21;3.95;;;1.95;;
24305;SDS011;12423;48.768;8.850;2022-08-04T08:22:22;2.58;;;1.77;;
24305;SDS011;12423;48.768;8.850;2022-08-04T08:24:23;5.95;;;2.15;;
24305;SDS011;12423;48.768;8.850;2022-08-04T08:26:24;2.90;;;1.63;;
24305;SDS011;12423;48.768;8.850;2022-08-04T08:28:26;3.70;;;1.50;;
24305;SDS011;12423;48.768;8.850;2022-08-04T08:30:27;4.85;;;1.80;;
24305;SDS011;12423;48.768;8.850;2022-08-04T08:32:28;4.88;;;1.95;;
24305;SDS011;12423;48.768;8.850;2022-08-04T08:34:29;3.63;;;2.10;;
24305;SDS011;12423;48.768;8.850;2022-08-04T08:36:40;2.85;;;1.80;;
24305;SDS011;12423;48.768;8.850;2022-08-04T08:38:52;5.40;;;1.90;;
24305;SDS011;12423;48.768;8.850;2022-08-04T08:41:08;4.70;;;1.80;;
24305;SDS011;12423;48.768;8.850;2022-08-04T08:43:29;4.60;;;2.28;;
24305;SDS011;12423;48.768;8.850;2022-08-04T08:54:53;6.38;;;1.73;;
24305;SDS011;12423;48.768;8.850;2022-08-04T08:59:33;5.10;;;1.63;;
24305;SDS011;12423;48.768;8.850;2022-08-04T09:04:47;2.88;;;1.73;;
24305;SDS011;12423;48.768;8.850;2022-08-04T09:12:04;3.72;;;1.90;;
24305;SDS011;12423;48.768;8.850;2022-08-04T09:14:15;3.00;;;1.58;;
24305;SDS011;12423;48.768;8.850;2022-08-04T09:16:21;4.45;;;2.05;;
24305;SDS011;12423;48.768;8.850;2022-08-04T09:18:33;4.82;;;1.80;;
24305;SDS011;12423;48.768;8.850;2022-08-04T09:22:48;3.75;;;1.80;;
24305;SDS011;12423;48.768;8.850;2022-08-04T09:27:07;3.00;;;1.92;;
24305;SDS011;12423;48.768;8.850;2022-08-04T09:29:20;3.30;;;2.08;;
24305;SDS011;12423;48.768;8.850;2022-08-04T09:31:42;3.35;;;1.75;;
24305;SDS011;12423;48.768;8.850;2022-08-04T09:33:52;5.07;;;1.55;;
24305;SDS011;12423;48.768;8.850;2022-08-04T09:36:02;2.13;;;1.55;;
24305;SDS011;12423;48.768;8.850;2022-08-04T09:40:31;4.97;;;1.70;;
24305;SDS011;12423;48.768;8.850;2022-08-04T09:44:56;3.10;;;1.50;;
24305;SDS011;12423;48.768;8.850;2022-08-04T09:49:40;4.22;;;1.70;;
24305;SDS011;12423;48.768;8.850;2022-08-04T09:53:52;3.10;;;1.50;;
24305;SDS011;12423;48.768;8.850;2022-08-04T09:58:04;2.45;;;1.38;;
24305;SDS011;12423;48.768;8.850;2022-08-04T10:00:14;3.25;;;1.70;;
24305;SDS011;12423;48.768;8.850;2022-08-04T10:02:17;3.67;;;1.63;;
24305;SDS011;12423;48.768;8.850;2022-08-04T10:04:21;2.10;;;1.50;;
24305;SDS011;12423;48.768;8.850;2022-08-04T10:11:36;3.67;;;1.50;;
24305;SDS011;12423;48.768;8.850;2022-08-04T10:23:11;2.30;;;1.60;;
24305;SDS011;12423;48.768;8.850;2022-08-04T10:25:37;5.57;;;1.58;;
24305;SDS011;12423;48.768;8.850;2022-08-04T10:27:50;3.97;;;1.50;;
24305;SDS011;12423;48.768;8.850;2022-08-04T10:29:54;3.47;;;1.58;;
24305;SDS011;12423;48.768;8.850;2022-08-04T10:32:16;1.88;;;1.30;;
24305;SDS011;12423;48.768;8.850;2022-08-04T10:34:21;2.70;;;1.50;;
24305;SDS011;12423;48.768;8.850;2022-08-04T10:36:27;2.20;;;1.40;;
24305;SDS011;12423;48.768;8.850;2022-08-04T10:38:40;3.38;;;1.80;;
24305;SDS011;12423;48.768;8.850;2022-08-04T10:40:54;4.15;;;2.20;;
24305;SDS011;12423;48.768;8.850;2022-08-04T10:42:59;5.43;;;1.92;;
24305;SDS011;12423;48.768;8.850;2022-08-04T10:47:21;2.95;;;1.67;;
24305;SDS011;12423;48.768;8.850;2022-08-04T10:49:36;6.90;;;1.77;;
24305;SDS011;12423;48.768;8.850;2022-08-04T10:51:44;5.60;;;1.70;;
24305;SDS011;12423;48.768;8.850;2022-08-04T10:54:02;3.55;;;1.67;;
24305;SDS011;12423;48.768;8.850;2022-08-04T10:56:41;4.82;;;1.98;;
24305;SDS011;12423;48.768;8.850;2022-08-04T10:58:44;3.72;;;2.03;;
24305;SDS011;12423;48.768;8.850;2022-08-04T11:00:49;3.05;;;1.70;;
24305;SDS011;12423;48.768;8.850;2022-08-04T11:05:04;9.48;;;5.50;;
24305;SDS011;12423;48.768;8.850;2022-08-04T11:07:14;6.40;;;4.38;;
24305;SDS011;12423;48.768;8.850;2022-08-04T11:09:17;9.45;;;5.50;;
24305;SDS011;12423;48.768;8.850;2022-08-04T11:11:30;8.88;;;6.32;;
24305;SDS011;12423;48.768;8.850;2022-08-04T11:16:05;8.93;;;6.93;;
24305;SDS011;12423;48.768;8.850;2022-08-04T11:18:13;8.07;;;4.07;;
24305;SDS011;12423;48.768;8.850;2022-08-04T11:20:43;4.70;;;1.88;;
24305;SDS011;12423;48.768;8.850;2022-08-04T11:23:05;5.93;;;3.50;;
24305;SDS011;12423;48.768;8.850;2022-08-04T11:25:13;5.55;;;1.88;;
24305;SDS011;12423;48.768;8.850;2022-08-04T11:30:04;3.58;;;1.58;;
24305;SDS011;12423;48.768;8.850;2022-08-04T11:32:16;5.88;;;2.40;;
24305;SDS011;12423;48.768;8.850;2022-08-04T11:34:24;5.28;;;2.30;;
24305;SDS011;12423;48.768;8.850;2022-08-04T11:36:35;4.13;;;2.30;;
24305;SDS011;12423;48.768;8.850;2022-08-04T11:41:04;8.45;;;1.92;;
24305;SDS011;12423;48.768;8.850;2022-08-04T11:43:15;3.13;;;1.67;;
24305;SDS011;12423;48.768;8.850;2022-08-04T11:45:23;4.88;;;2.17;;
24305;SDS011;12423;48.768;8.850;2022-08-04T11:47:35;4.93;;;1.70;;
24305;SDS011;12423;48.768;8.850;2022-08-04T11:49:48;7.43;;;2.08;;
24305;SDS011;12423;48.768;8.850;2022-08-04T11:51:55;2.58;;;1.50;;
24305;SDS011;12423;48.768;8.850;2022-08-04T11:54:00;5.18;;;1.77;;
24305;SDS011;12423;48.768;8.850;2022-08-04T11:56:02;2.75;;;1.45;;
24305;SDS011;12423;48.768;8.850;2022-08-04T11:58:06;4.32;;;1.48;;
24305;SDS011;12423;48.768;8.850;2022-08-04T12:00:09;3.05;;;1.60;;
24305;SDS011;12423;48.768;8.850;2022-08-04T12:04:33;4.45;;;1.70;;
24305;SDS011;12423;48.768;8.850;2022-08-04T12:09:11;3.33;;;1.52;;
24305;SDS011;12423;48.768;8.850;2022-08-04T12:19:32;2.90;;;1.60;;
24305;SDS011;12423;48.768;8.850;2022-08-04T12:21:41;3.05;;;1.60;;
24305;SDS011;12423;48.768;8.850;2022-08-04T12:23:45;3.67;;;1.90;;
24305;SDS011;12423;48.768;8.850;2022-08-04T12:25:48;3.78;;;1.52;;
24305;SDS011;12423;48.768;8.850;2022-08-04T12:28:15;4.43;;;1.58;;
24305;SDS011;12423;48.768;8.850;2022-08-04T12:30:22;3.17;;;1.90;;
24305;SDS011;12423;48.768;8.850;2022-08-04T12:34:38;4.22;;;1.73;;
24305;SDS011;12423;48.768;8.850;2022-08-04T12:39:14;4.93;;;1.70;;
24305;SDS011;12423;48.768;8.850;2022-08-04T12:41:20;3.05;;;1.85;;
24305;SDS011;12423;48.768;8.850;2022-08-04T12:43:34;5.82;;;1.73;;
24305;SDS011;12423;48.768;8.850;2022-08-04T12:45:42;3.85;;;1.67;;
24305;SDS011;12423;48.768;8.850;2022-08-04T12:47:45;3.08;;;1.50;;
24305;SDS011;12423;48.768;8.850;2022-08-04T12:49:47;3.03;;;1.58;;
24305;SDS011;12423;48.768;8.850;2022-08-04T12:51:49;7.65;;;1.65;;
24305;SDS011;12423;48.768;8.850;2022-08-04T12:53:51;5.68;;;1.52;;
24305;SDS011;12423;48.768;8.850;2022-08-04T12:55:52;3.33;;;1.60;;
24305;SDS011;12423;48.768;8.850;2022-08-04T12:57:54;6.30;;;2.10;;
24305;SDS011;12423;48.768;8.850;2022-08-04T12:59:56;4.65;;;1.70;;
24305;SDS011;12423;48.768;8.850;2022-08-04T13:01:57;3.10;;;1.80;;
24305;SDS011;12423;48.768;8.850;2022-08-04T13:04:00;2.30;;;1.67;;
24305;SDS011;12423;48.768;8.850;2022-08-04T13:06:13;3.33;;;1.40;;
24305;SDS011;12423;48.768;8.850;2022-08-04T13:08:15;3.17;;;1.70;;
24305;SDS011;12423;48.768;8.850;2022-08-04T13:10:21;3.50;;;1.88;;
24305;SDS011;12423;48.768;8.850;2022-08-04T13:12:24;3.60;;;1.65;;
24305;SDS011;12423;48.768;8.850;2022-08-04T13:14:33;3.20;;;1.60;;
24305;SDS011;12423;48.768;8.850;2022-08-04T13:16:37;5.38;;;1.80;;
24305;SDS011;12423;48.768;8.850;2022-08-04T13:18:40;2.58;;;1.70;;
24305;SDS011;12423;48.768;8.850;2022-08-04T13:20:46;3.35;;;1.60;;
24305;SDS011;12423;48.768;8.850;2022-08-04T13:22:48;2.95;;;1.70;;
24305;SDS011;12423;48.768;8.850;2022-08-04T13:24:49;4.30;;;1.63;;
24305;SDS011;12423;48.768;8.850;2022-08-04T13:29:03;3.15;;;1.58;;
24305;SDS011;12423;48.768;8.850;2022-08-04T13:31:07;6.07;;;1.83;;
24305;SDS011;12423;48.768;8.850;2022-08-04T13:33:12;2.67;;;1.50;;
24305;SDS011;12423;48.768;8.850;2022-08-04T13:35:15;2.67;;;1.40;;
24305;SDS011;12423;48.768;8.850;2022-08-04T13:37:17;5.72;;;1.60;;
24305;SDS011;12423;48.768;8.850;2022-08-04T13:39:24;2.58;;;1.50;;
24305;SDS011;12423;48.768;8.850;2022-08-04T13:41:26;5.32;;;1.85;;
24305;SDS011;12423;48.768;8.850;2022-08-04T13:43:42;5.60;;;1.48;;
24305;SDS011;12423;48.768;8.850;2022-08-04T13:45:46;8.02;;;1.63;;
24305;SDS011;12423;48.768;8.850;2022-08-04T13:47:50;3.22;;;1.67;;
24305;SDS011;12423;48.768;8.850;2022-08-04T13:52:17;4.93;;;1.70;;
24305;SDS011;12423;48.768;8.850;2022-08-04T13:56:49;3.13;;;1.55;;
24305;SDS011;12423;48.768;8.850;2022-08-04T13:58:54;3.30;;;1.70;;
24305;SDS011;12423;48.768;8.850;2022-08-04T14:03:04;2.08;;;1.42;;
24305;SDS011;12423;48.768;8.850;2022-08-04T14:05:12;4.68;;;1.52;;
24305;SDS011;12423;48.768;8.850;2022-08-04T14:07:15;6.95;;;2.20;;
24305;SDS011;12423;48.768;8.850;2022-08-04T14:09:18;2.33;;;1.60;;
24305;SDS011;12423;48.768;8.850;2022-08-04T14:11:22;2.78;;;1.60;;
24305;SDS011;12423;48.768;8.850;2022-08-04T14:13:30;2.45;;;1.63;;
24305;SDS011;12423;48.768;8.850;2022-08-04T14:15:42;3.47;;;1.60;;
24305;SDS011;12423;48.768;8.850;2022-08-04T14:17:45;5.93;;;1.50;;
24305;SDS011;12423;48.768;8.850;2022-08-04T14:21:54;3.35;;;1.83;;
24305;SDS011;12423;48.768;8.850;2022-08-04T14:23:55;3.88;;;1.50;;
24305;SDS011;12423;48.768;8.850;2022-08-04T14:25:57;5.43;;;1.63;;
24305;SDS011;12423;48.768;8.850;2022-08-04T14:27:58;3.58;;;1.50;;
24305;SDS011;12423;48.768;8.850;2022-08-04T14:30:01;4.38;;;1.60;;
24305;SDS011;12423;48.768;8.850;2022-08-04T14:32:03;2.85;;;1.85;;
24305;SDS011;12423;48.768;8.850;2022-08-04T14:34:05;3.40;;;1.80;;
24305;SDS011;12423;48.768;8.850;2022-08-04T14:36:06;2.80;;;1.50;;
24305;SDS011;12423;48.768;8.850;2022-08-04T14:38:09;2.75;;;1.35;;
24305;SDS011;12423;48.768;8.850;2022-08-04T14:40:20;3.90;;;1.60;;
24305;SDS011;12423;48.768;8.850;2022-08-04T14:42:39;2.78;;;1.70;;
24305;SDS011;12423;48.768;8.850;2022-08-04T14:46:57;2.90;;;1.70;;
24305;SDS011;12423;48.768;8.850;2022-08-04T14:51:06;3.63;;;1.98;;
24305;SDS011;12423;48.768;8.850;2022-08-04T14:53:15;2.75;;;1.73;;
24305;SDS011;12423;48.768;8.850;2022-08-04T14:55:18;3.80;;;1.50;;
24305;SDS011;12423;48.768;8.850;2022-08-04T14:57:21;2.60;;;1.60;;
24305;SDS011;12423;48.768;8.850;2022-08-04T14:59:23;5.72;;;1.70;;
24305;SDS011;12423;48.768;8.850;2022-08-04T15:01:24;4.57;;;1.70;;
24305;SDS011;12423;48.768;8.850;2022-08-04T15:03:28;5.10;;;1.80;;
24305;SDS011;12423;48.768;8.850;2022-08-04T15:05:30;2.25;;;1.50;;
24305;SDS011;12423;48.768;8.850;2022-08-04T15:07:31;3.70;;;1.70;;
24305;SDS011;12423;48.768;8.850;2022-08-04T15:09:33;3.70;;;2.08;;
24305;SDS011;12423;48.768;8.850;2022-08-04T15:11:34;6.28;;;1.40;;
24305;SDS011;12423;48.768;8.850;2022-08-04T15:13:36;2.33;;;1.50;;
24305;SDS011;12423;48.768;8.850;2022-08-04T15:15:38;2.50;;;1.88;;
24305;SDS011;12423;48.768;8.850;2022-08-04T15:17:43;4.10;;;2.10;;
24305;SDS011;12423;48.768;8.850;2022-08-04T15:19:44;3.22;;;1.58;;
24305;SDS011;12423;48.768;8.850;2022-08-04T15:21:45;4.07;;;1.67;;
24305;SDS011;12423;48.768;8.850;2022-08-04T15:23:47;4.28;;;1.80;;
24305;SDS011;12423;48.768;8.850;2022-08-04T15:25:51;3.65;;;1.60;;
24305;SDS011;12423;48.768;8.850;2022-08-04T15:27:55;3.65;;;1.85;;
24305;SDS011;12423;48.768;8.850;2022-08-04T15:29:59;2.85;;;1.75;;
24305;SDS011;12423;48.768;8.850;2022-08-04T15:32:02;3.50;;;1.70;;
24305;SDS011;12423;48.768;8.850;2022-08-04T15:34:06;4.78;;;1.50;;
24305;SDS011;12423;48.768;8.850;2022-08-04T15:36:15;3.75;;;2.55;;
24305;SDS011;12423;48.768;8.850;2022-08-04T15:38:41;3.75;;;1.52;;
24305;SDS011;12423;48.768;8.850;2022-08-04T15:41:07;3.80;;;1.52;;
24305;SDS011;12423;48.768;8.850;2022-08-04T15:43:28;4.93;;;1.52;;
24305;SDS011;12423;48.768;8.850;2022-08-04T15:45:55;2.80;;;1.60;;
24305;SDS011;12423;48.768;8.850;2022-08-04T15:50:01;2.13;;;1.45;;
24305;SDS011;12423;48.768;8.850;2022-08-04T15:52:12;2.33;;;1.60;;
24305;SDS011;12423;48.768;8.850;2022-08-04T15:58:24;3.10;;;1.58;;
24305;SDS011;12423;48.768;8.850;2022-08-04T16:00:25;3.50;;;1.58;;
24305;SDS011;12423;48.768;8.850;2022-08-04T16:04:33;3.20;;;1.60;;
24305;SDS011;12423;48.768;8.850;2022-08-04T16:10:49;2.20;;;1.50;;
24305;SDS011;12423;48.768;8.850;2022-08-04T16:12:54;5.20;;;1.80;;
24305;SDS011;12423;48.768;8.850;2022-08-04T16:14:56;3.72;;;1.80;;
24305;SDS011;12423;48.768;8.850;2022-08-04T16:17:38;2.30;;;1.50;;
24305;SDS011;12423;48.768;8.850;2022-08-04T16:21:45;3.05;;;1.60;;